Brussels Airport

EBBR · Vlaams-Brabant, Flanders, 比利时

罗盘
风向 的 风向 230° 布鲁塞尔机场 1/19
风: 13 kt, 4 beaufort

11 kt

8 kt
改变
0 ft 1.000 2.000 3.000 4.000 5.000
CAVOK
METAR EBBR 310720Z 23013KT CAVOK 04/02 Q1024 NOSIG

METAR 布鲁塞尔机场 - EBBR/BRU

布鲁塞尔机场是,比利时中的大型机场。 该机场有4条跑道: 1/19, 7L/25R, 7R/25L 和 7/25. 该领域的国际民航组织标志是EBBR 它的国际航空运输协会代码是BRU.

这份报告是针对2023年1月31日 08:20, 当地时间在布鲁塞尔机场进行的。

机场观察

风向为230°,速度为13 kt。

天气为CAVOK。这意味着在5.000 ft或MSA(最低安全高度)以下(以较高者为准)以下没有云。这也意味着没有观测到积雨云或高耸的积云,可见度为10 km 或者更多或更高。此外,不会有雾,降雨或其他重要天气。

温度为4 °C,阵风为-3 °C。 露点为2 °C,相对湿度为87%。 海平面上的气压为1024 hPa (QNH)。

白天

今天,太阳从08:19升起,在17:30降落。 这适用于布鲁塞尔机场,世界夏令时可能有所不同。 当地时间与世界标准时间之间的时差为+1 小时。 当前,没有夏令时有效。

公司介绍

在这个机场,你可以找到飞行学校。 这个机场上的公司有Brussels Flight Simulators 和 Hub Air Aviation Academy。

体会

到Vliegles.nl去找飞行课程,跳伞和其他飞行体验。 浏览页面,了解布鲁塞尔机场附近所有可用的活动。 你也可以使用搜索功能来寻找你所在地附近的特定飞行课程、跳伞或其他飞行体验。

跑道

Id 标题 侧风 逆风 侧风 %
1/19 014°-194° 8 kt 11 kt 59 %
7L/25R 065°-245° 3 kt 13 kt 26 %
7R/25L 070°-250° 4 kt 12 kt 34 %
7/25 070°-250° 4 kt 12 kt 34 %

逆风成分最大的方向会被突出显示,并用于横风计算。 这并不一定意味着这个方向在使用。

温度 & 天气

温度 4 °C
露点 2 °C
相对湿度 87%
风寒 -3 °C
Kp-index 2 (0-9)

白天

日出
08:19
中午
12:55
日落
17:30 (8:52)

小工具

你想在你的网站上有一个关于布鲁塞尔机场的当前航空天气(METAR)的小部件吗?

显示HTML代码

我们和第三方通过cookies跟踪您在我们网站上的互联网行为。如果你继续,我们认为你同意我们的饼干政策